createdAt,value
2018-05-15T00:00:18.683Z,11.80
2018-05-15T00:01:18.730Z,11.68
2018-05-15T00:02:18.799Z,11.68
2018-05-15T00:03:18.820Z,11.70
2018-05-15T00:04:18.869Z,11.59
2018-05-15T00:05:18.916Z,11.68
2018-05-15T00:06:18.969Z,11.64
2018-05-15T00:07:19.044Z,11.61
2018-05-15T00:08:19.057Z,11.62
2018-05-15T00:09:19.105Z,11.54
2018-05-15T00:10:19.152Z,11.56
2018-05-15T00:11:19.199Z,11.59
2018-05-15T00:12:19.281Z,11.65
2018-05-15T00:13:19.295Z,11.71
2018-05-15T00:14:19.342Z,11.72
2018-05-15T00:15:19.392Z,11.72
2018-05-15T00:16:19.437Z,11.65
2018-05-15T00:17:19.523Z,11.74
2018-05-15T00:18:19.529Z,11.77
2018-05-15T00:19:19.579Z,11.75
2018-05-15T00:20:19.628Z,11.70
2018-05-15T00:21:19.681Z,11.71
2018-05-15T00:22:19.744Z,11.68
2018-05-15T00:23:19.764Z,11.77
2018-05-15T00:24:19.837Z,11.80
2018-05-15T00:25:19.858Z,11.75
2018-05-15T00:26:19.907Z,11.82
2018-05-15T00:27:19.953Z,11.85
2018-05-15T00:28:20.029Z,11.85
2018-05-15T00:29:20.064Z,11.87
2018-05-15T00:30:20.096Z,11.97
2018-05-15T00:31:20.142Z,12.02
2018-05-15T00:32:20.193Z,11.90
2018-05-15T00:33:20.263Z,11.93
2018-05-15T00:34:20.287Z,11.82
2018-05-15T00:35:20.356Z,11.90
2018-05-15T00:36:20.379Z,11.97
2018-05-15T00:37:20.426Z,11.97
2018-05-15T00:38:20.496Z,11.87
2018-05-15T00:39:20.521Z,11.87
2018-05-15T00:40:20.567Z,11.94
2018-05-15T00:41:20.638Z,11.90
2018-05-15T00:42:20.662Z,11.96
2018-05-15T00:43:20.708Z,11.94
2018-05-15T00:44:20.771Z,12.04
2018-05-15T00:45:20.802Z,11.87
2018-05-15T00:46:20.882Z,11.93
2018-05-15T00:47:20.894Z,11.89
2018-05-15T00:48:20.944Z,11.90
2018-05-15T00:49:20.998Z,11.99
2018-05-15T00:50:21.035Z,11.86
2018-05-15T00:51:21.124Z,11.96
2018-05-15T00:52:21.130Z,11.94
2018-05-15T00:53:21.179Z,11.89
2018-05-15T00:54:21.222Z,11.93
2018-05-15T00:55:21.271Z,12.09
2018-05-15T00:56:21.352Z,11.99
2018-05-15T00:57:21.364Z,12.11
2018-05-15T00:58:21.418Z,12.08
2018-05-15T00:59:21.458Z,12.01
2018-05-15T01:00:21.509Z,11.99
2018-05-15T01:01:21.578Z,11.94
2018-05-15T01:02:21.600Z,12.04
2018-05-15T01:03:21.648Z,11.90
2018-05-15T01:04:21.697Z,11.83
2018-05-15T01:05:21.742Z,11.85
2018-05-15T01:06:21.813Z,11.87
2018-05-15T01:07:21.878Z,11.89
2018-05-15T01:08:21.881Z,11.86
2018-05-15T01:09:21.931Z,11.87
2018-05-15T01:10:21.977Z,12.04
2018-05-15T01:11:22.025Z,11.99
2018-05-15T01:12:22.101Z,11.99
2018-05-15T01:13:22.120Z,12.08
2018-05-15T01:14:22.166Z,11.93
2018-05-15T01:15:22.211Z,11.96
2018-05-15T01:16:22.258Z,11.96
2018-05-15T01:17:22.336Z,11.93
2018-05-15T01:18:22.354Z,11.93
2018-05-15T01:19:22.403Z,11.86
2018-05-15T01:20:22.449Z,11.94
2018-05-15T01:21:22.495Z,11.97
2018-05-15T01:22:22.568Z,12.05
2018-05-15T01:23:22.612Z,12.06
2018-05-15T01:24:22.637Z,11.96
2018-05-15T01:25:22.681Z,11.97
2018-05-15T01:26:22.729Z,11.93
2018-05-15T01:27:22.778Z,12.01
2018-05-15T01:28:23.550Z,11.99
2018-05-15T01:29:22.870Z,11.94
2018-05-15T01:30:22.916Z,11.96
2018-05-15T01:31:22.963Z,11.97
2018-05-15T01:32:23.017Z,11.90
2018-05-15T01:33:23.059Z,11.90
2018-05-15T01:34:23.137Z,11.96
2018-05-15T01:35:23.151Z,11.99
2018-05-15T01:36:23.199Z,12.01
2018-05-15T01:37:23.248Z,11.96
2018-05-15T01:38:23.293Z,11.97
2018-05-15T01:39:23.368Z,11.86
2018-05-15T01:40:23.386Z,11.82
2018-05-15T01:41:23.439Z,11.74
2018-05-15T01:42:23.484Z,11.74
2018-05-15T01:43:23.529Z,11.80
2018-05-15T01:44:23.602Z,11.82
2018-05-15T01:45:23.624Z,11.80
2018-05-15T01:46:23.672Z,11.89
2018-05-15T01:47:23.723Z,11.94
2018-05-15T01:48:23.764Z,11.99
2018-05-15T01:49:23.842Z,11.99
2018-05-15T01:50:23.885Z,11.93
2018-05-15T01:51:23.908Z,11.90
2018-05-15T01:52:23.952Z,11.86
2018-05-15T01:53:24.001Z,11.85
2018-05-15T01:54:24.048Z,11.77
2018-05-15T01:55:24.140Z,11.75
2018-05-15T01:56:24.143Z,11.72
2018-05-15T01:57:24.191Z,11.75
2018-05-15T01:58:24.235Z,11.74
2018-05-15T01:59:24.284Z,11.68
2018-05-15T02:00:24.363Z,11.71
2018-05-15T02:01:24.378Z,11.64
2018-05-15T02:02:24.430Z,11.54
2018-05-15T02:03:24.472Z,11.61
2018-05-15T02:04:24.526Z,11.67
2018-05-15T02:05:24.595Z,11.70
2018-05-15T02:06:24.614Z,11.53
2018-05-15T02:07:24.662Z,11.68
2018-05-15T02:08:24.709Z,11.68
2018-05-15T02:09:24.758Z,11.71
2018-05-15T02:10:24.826Z,11.74
2018-05-15T02:11:24.875Z,11.71
2018-05-15T02:12:24.898Z,11.53
2018-05-15T02:13:24.945Z,11.53
2018-05-15T02:14:24.993Z,11.59
2018-05-15T02:15:25.039Z,11.50
2018-05-15T02:16:25.114Z,11.52
2018-05-15T02:17:25.142Z,11.53
2018-05-15T02:18:25.183Z,11.52
2018-05-15T02:19:25.259Z,11.54
2018-05-15T02:20:25.277Z,11.52
2018-05-15T02:21:25.357Z,11.54
2018-05-15T02:22:25.376Z,11.54
2018-05-15T02:23:25.417Z,11.54
2018-05-15T02:24:25.466Z,11.50
2018-05-15T02:25:25.513Z,11.47
2018-05-15T02:26:25.600Z,11.53
2018-05-15T02:27:25.610Z,11.56
2018-05-15T02:28:25.655Z,11.65
2018-05-15T02:29:25.710Z,11.56
2018-05-15T02:30:25.837Z,11.49
2018-05-15T02:31:25.821Z,11.53
2018-05-15T02:32:25.870Z,11.56
2018-05-15T02:33:25.892Z,11.50
2018-05-15T02:34:25.939Z,11.52
2018-05-15T02:35:25.988Z,11.50
2018-05-15T02:36:26.033Z,11.59
2018-05-15T02:37:26.107Z,11.44
2018-05-15T02:38:26.131Z,11.44
2018-05-15T02:39:26.174Z,11.39
2018-05-15T02:40:26.226Z,11.46
2018-05-15T02:41:26.271Z,11.46
2018-05-15T02:42:26.344Z,11.46
2018-05-15T02:43:26.387Z,11.43
2018-05-15T02:44:26.417Z,11.43
2018-05-15T02:45:26.459Z,11.44
2018-05-15T02:46:26.508Z,11.41
2018-05-15T02:47:26.579Z,11.36
2018-05-15T02:48:26.625Z,11.49
2018-05-15T02:49:26.649Z,11.44
2018-05-15T02:50:26.694Z,11.44
2018-05-15T02:51:26.747Z,11.54
2018-05-15T02:52:26.794Z,11.49
2018-05-15T02:53:26.862Z,11.53
2018-05-15T02:54:26.885Z,11.50
2018-05-15T02:55:26.930Z,11.53
2018-05-15T02:56:26.979Z,11.49
2018-05-15T02:57:27.025Z,11.46
2018-05-15T02:58:27.103Z,11.59
2018-05-15T02:59:27.121Z,11.54
2018-05-15T03:00:27.167Z,11.52
2018-05-15T03:01:27.215Z,11.53
2018-05-15T03:02:27.260Z,11.53
2018-05-15T03:03:27.345Z,11.53
2018-05-15T03:04:27.356Z,11.49
2018-05-15T03:05:27.405Z,11.56
2018-05-15T03:06:27.452Z,11.56
2018-05-15T03:07:27.497Z,11.57
2018-05-15T03:08:27.573Z,11.62
2018-05-15T03:09:27.595Z,11.61
2018-05-15T03:10:27.671Z,11.59
2018-05-15T03:11:27.691Z,11.74
2018-05-15T03:12:27.735Z,11.71
2018-05-15T03:13:27.783Z,11.74
2018-05-15T03:14:27.831Z,11.72
2018-05-15T03:15:27.901Z,11.72
2018-05-15T03:16:27.941Z,11.74
2018-05-15T03:17:27.972Z,11.70
2018-05-15T03:18:28.019Z,11.54
2018-05-15T03:19:28.099Z,11.56
2018-05-15T03:20:28.112Z,11.61
2018-05-15T03:21:28.185Z,11.57
2018-05-15T03:22:28.210Z,11.61
2018-05-15T03:23:28.257Z,11.61
2018-05-15T03:24:28.304Z,11.68
2018-05-15T03:25:28.375Z,11.62
2018-05-15T03:26:28.400Z,11.65
2018-05-15T03:27:28.444Z,11.50
2018-05-15T03:28:28.492Z,11.49
2018-05-15T03:29:28.539Z,11.50
2018-05-15T03:30:28.616Z,11.56
2018-05-15T03:31:28.634Z,11.54
2018-05-15T03:32:28.723Z,11.54
2018-05-15T03:33:28.732Z,11.54
2018-05-15T03:34:28.780Z,11.53
2018-05-15T03:35:28.824Z,11.65
2018-05-15T03:36:28.872Z,11.56
2018-05-15T03:37:28.947Z,11.54
2018-05-15T03:38:28.965Z,11.61
2018-05-15T03:39:29.015Z,11.57
2018-05-15T03:40:29.062Z,11.49
2018-05-15T03:41:29.109Z,11.46
2018-05-15T03:42:29.178Z,11.47
2018-05-15T03:43:29.226Z,11.44
2018-05-15T03:44:29.252Z,11.50
2018-05-15T03:45:29.304Z,11.41
2018-05-15T03:46:29.345Z,11.39
2018-05-15T03:47:29.401Z,11.52
2018-05-15T03:48:29.464Z,11.53
2018-05-15T03:49:29.553Z,11.46
2018-05-15T03:50:29.536Z,11.56
2018-05-15T03:51:29.581Z,11.56
2018-05-15T03:52:29.636Z,11.56
2018-05-15T03:53:29.708Z,11.52
2018-05-15T03:54:29.724Z,11.50
2018-05-15T03:55:29.770Z,11.43
2018-05-15T03:56:29.817Z,11.31
2018-05-15T03:57:29.871Z,11.32
2018-05-15T03:58:29.934Z,11.27
2018-05-15T03:59:29.984Z,11.39
2018-05-15T04:00:30.011Z,11.47
2018-05-15T04:01:30.055Z,11.38
2018-05-15T04:02:30.102Z,11.43
2018-05-15T04:03:30.186Z,11.38
2018-05-15T04:04:30.197Z,11.43
2018-05-15T04:05:30.244Z,11.47
2018-05-15T04:06:30.288Z,11.49
2018-05-15T04:07:30.337Z,11.41
2018-05-15T04:08:30.416Z,11.39
2018-05-15T04:09:30.432Z,11.34
2018-05-15T04:10:30.481Z,11.34
2018-05-15T04:11:30.525Z,11.31
2018-05-15T04:12:30.574Z,11.32
2018-05-15T04:13:30.643Z,11.32
2018-05-15T04:14:30.694Z,11.24
2018-05-15T04:15:30.723Z,11.24
2018-05-15T04:16:30.761Z,11.21
2018-05-15T04:17:30.813Z,11.20
2018-05-15T04:18:30.854Z,11.13
2018-05-15T04:19:30.927Z,11.14
2018-05-15T04:20:30.950Z,11.10
2018-05-15T04:21:30.996Z,11.19
2018-05-15T04:22:31.043Z,11.19
2018-05-15T04:23:31.089Z,11.27
2018-05-15T04:24:31.167Z,11.25
2018-05-15T04:25:31.188Z,11.27
2018-05-15T04:26:31.231Z,11.34
2018-05-15T04:27:31.276Z,11.32
2018-05-15T04:28:31.324Z,11.31
2018-05-15T04:29:31.405Z,11.44
2018-05-15T04:30:31.424Z,11.38
2018-05-15T04:31:31.465Z,11.47
2018-05-15T04:32:31.512Z,11.46
2018-05-15T04:33:31.560Z,11.53
2018-05-15T04:34:31.666Z,11.54
2018-05-15T04:35:31.661Z,11.53
2018-05-15T04:36:31.699Z,11.50
2018-05-15T04:37:31.750Z,11.59
2018-05-15T04:38:31.795Z,11.47
2018-05-15T04:39:31.865Z,11.39
2018-05-15T04:40:31.917Z,11.35
2018-05-15T04:41:31.934Z,11.34
2018-05-15T04:42:31.982Z,11.39
2018-05-15T04:43:32.120Z,11.38
2018-05-15T04:44:32.075Z,11.44
2018-05-15T04:45:32.155Z,11.44
2018-05-15T04:46:32.180Z,11.59
2018-05-15T04:47:32.216Z,11.54
2018-05-15T04:48:32.264Z,11.47
2018-05-15T04:49:32.313Z,11.52
2018-05-15T04:50:32.402Z,11.49
2018-05-15T04:51:32.405Z,11.54
2018-05-15T04:52:32.453Z,11.50
2018-05-15T04:53:32.501Z,11.46
2018-05-15T04:54:32.548Z,11.49
2018-05-15T04:55:32.622Z,11.50
2018-05-15T04:56:32.670Z,11.53
2018-05-15T04:57:32.689Z,11.50
2018-05-15T04:58:32.735Z,11.47
2018-05-15T04:59:32.783Z,11.53
2018-05-15T05:00:32.830Z,11.46
2018-05-15T05:01:32.902Z,11.39
2018-05-15T05:02:32.924Z,11.43
2018-05-15T05:03:32.974Z,11.53
2018-05-15T05:04:33.018Z,11.49
2018-05-15T05:05:33.066Z,11.49
2018-05-15T05:06:33.133Z,11.50
2018-05-15T05:07:33.158Z,11.49
2018-05-15T05:08:33.204Z,11.50
2018-05-15T05:09:33.252Z,11.53
2018-05-15T05:10:33.298Z,11.53
2018-05-15T05:11:33.382Z,11.52
2018-05-15T05:12:33.395Z,11.54
2018-05-15T05:13:33.449Z,11.49
2018-05-15T05:14:33.486Z,11.47
2018-05-15T05:15:33.540Z,11.46
2018-05-15T05:16:33.613Z,11.50
2018-05-15T05:17:33.632Z,11.52
2018-05-15T05:18:33.676Z,11.39
2018-05-15T05:19:33.726Z,11.47
2018-05-15T05:20:33.770Z,11.41
2018-05-15T05:21:33.843Z,11.47
2018-05-15T05:22:33.888Z,11.53
2018-05-15T05:23:33.913Z,11.54
2018-05-15T05:24:33.960Z,11.57
2018-05-15T05:25:34.009Z,11.59
2018-05-15T05:26:34.054Z,11.59
2018-05-15T05:27:34.125Z,11.54
2018-05-15T05:28:34.153Z,11.57
2018-05-15T05:29:34.199Z,11.57
2018-05-15T05:30:34.244Z,11.64
2018-05-15T05:31:34.290Z,11.72
2018-05-15T05:32:34.369Z,11.62
2018-05-15T05:33:34.386Z,11.72
2018-05-15T05:34:34.433Z,11.74
2018-05-15T05:35:34.480Z,11.82
2018-05-15T05:36:34.526Z,11.78
2018-05-15T05:37:34.601Z,11.77
2018-05-15T05:38:34.643Z,11.77
2018-05-15T05:39:34.668Z,11.75
2018-05-15T05:40:34.717Z,11.68
2018-05-15T05:41:34.763Z,11.77
2018-05-15T05:42:34.816Z,11.67
2018-05-15T05:43:34.887Z,11.54
2018-05-15T05:44:34.904Z,11.64
2018-05-15T05:45:34.953Z,11.61
2018-05-15T05:46:34.998Z,11.50
2018-05-15T05:47:35.131Z,11.50
2018-05-15T05:48:35.118Z,11.47
2018-05-15T05:49:35.141Z,11.54
2018-05-15T05:50:35.215Z,11.53
2018-05-15T05:51:35.236Z,11.57
2018-05-15T05:52:35.282Z,11.57
2018-05-15T05:53:35.358Z,11.50
2018-05-15T05:54:35.397Z,11.49
2018-05-15T05:55:35.424Z,11.49
2018-05-15T05:56:35.475Z,11.56
2018-05-15T05:57:35.521Z,11.61
2018-05-15T05:58:35.598Z,11.53
2018-05-15T05:59:35.616Z,11.54
2018-05-15T06:00:35.663Z,11.53
2018-05-15T06:01:35.713Z,11.54
2018-05-15T06:02:35.760Z,11.59
2018-05-15T06:03:35.826Z,11.56
2018-05-15T06:04:35.879Z,11.61
2018-05-15T06:05:35.898Z,11.53
2018-05-15T06:06:35.946Z,11.52
2018-05-15T06:07:35.999Z,11.50
2018-05-15T06:08:36.039Z,11.57
2018-05-15T06:09:36.117Z,11.54
2018-05-15T06:10:36.134Z,11.50
2018-05-15T06:11:36.182Z,11.67
2018-05-15T06:12:36.228Z,11.61
2018-05-15T06:13:36.277Z,11.59
2018-05-15T06:14:36.349Z,11.59
2018-05-15T06:15:36.374Z,11.65
2018-05-15T06:16:36.421Z,11.64
2018-05-15T06:17:36.467Z,11.61
2018-05-15T06:18:36.516Z,11.59
2018-05-15T06:19:36.584Z,11.59
2018-05-15T06:20:36.715Z,11.65
2018-05-15T06:21:36.654Z,11.67
2018-05-15T06:22:36.704Z,11.68
2018-05-15T06:23:36.754Z,11.72
2018-05-15T06:24:36.819Z,11.75
2018-05-15T06:25:36.871Z,11.80
2018-05-15T06:26:36.893Z,11.89
2018-05-15T06:27:36.978Z,11.83
2018-05-15T06:28:36.987Z,11.75
2018-05-15T06:29:37.041Z,11.87
2018-05-15T06:30:37.103Z,11.86
2018-05-15T06:31:37.127Z,11.89
2018-05-15T06:32:37.175Z,11.87
2018-05-15T06:33:37.223Z,11.86
2018-05-15T06:34:37.270Z,11.86
2018-05-15T06:35:37.340Z,11.90
2018-05-15T06:36:37.389Z,11.90
2018-05-15T06:37:37.411Z,11.99
2018-05-15T06:38:37.496Z,11.89
2018-05-15T06:39:37.516Z,11.94
2018-05-15T06:40:37.556Z,11.87
2018-05-15T06:41:37.625Z,11.83
2018-05-15T06:42:37.650Z,11.96
2018-05-15T06:43:37.698Z,11.90
2018-05-15T06:44:37.749Z,11.93
2018-05-15T06:45:37.808Z,11.96
2018-05-15T06:46:37.868Z,11.93
2018-05-15T06:47:37.886Z,11.94
2018-05-15T06:48:37.936Z,12.01
2018-05-15T06:49:37.982Z,11.90
2018-05-15T06:50:38.028Z,11.96
2018-05-15T06:51:38.101Z,11.96
2018-05-15T06:52:38.123Z,12.05
2018-05-15T06:53:38.174Z,12.05
2018-05-15T06:54:38.217Z,12.12
2018-05-15T06:55:38.271Z,12.13
2018-05-15T06:56:38.338Z,12.16
2018-05-15T06:57:38.387Z,12.15
2018-05-15T06:58:38.411Z,12.20
2018-05-15T06:59:38.458Z,12.12
2018-05-15T07:00:38.503Z,12.09
2018-05-15T07:01:38.552Z,12.12
2018-05-15T07:02:38.624Z,12.15
2018-05-15T07:03:38.647Z,12.19
2018-05-15T07:04:38.699Z,12.16
2018-05-15T07:05:38.742Z,12.21
2018-05-15T07:06:38.788Z,12.24
2018-05-15T07:07:38.899Z,12.21
2018-05-15T07:08:38.909Z,12.13
2018-05-15T07:09:38.935Z,12.16
2018-05-15T07:10:38.983Z,12.15
2018-05-15T07:11:39.026Z,12.11
2018-05-15T07:12:39.099Z,12.16
2018-05-15T07:13:39.150Z,12.20
2018-05-15T07:14:39.171Z,12.23
2018-05-15T07:15:39.217Z,12.20
2018-05-15T07:16:39.267Z,12.26
2018-05-15T07:17:39.313Z,12.21
2018-05-15T07:18:39.393Z,12.21
2018-05-15T07:19:39.407Z,12.06
2018-05-15T07:20:39.454Z,12.15
2018-05-15T07:21:39.502Z,12.15
2018-05-15T07:22:39.548Z,12.08
2018-05-15T07:23:39.629Z,12.06
2018-05-15T07:24:39.645Z,12.11
2018-05-15T07:25:39.692Z,12.06
2018-05-15T07:26:39.743Z,12.13
2018-05-15T07:27:39.787Z,12.05
2018-05-15T07:28:39.878Z,11.96
2018-05-15T07:29:39.885Z,11.97
2018-05-15T07:30:39.930Z,11.99
2018-05-15T07:31:39.981Z,11.87
2018-05-15T07:32:40.027Z,11.86
2018-05-15T07:33:40.096Z,11.87
2018-05-15T07:34:40.119Z,11.74
2018-05-15T07:35:40.193Z,11.52
2018-05-15T07:36:40.214Z,11.52
2018-05-15T07:37:40.261Z,11.53
2018-05-15T07:38:40.311Z,11.52
2018-05-15T07:39:40.381Z,11.59
2018-05-15T07:40:40.413Z,11.59
2018-05-15T07:41:40.454Z,11.59
2018-05-15T07:42:40.497Z,11.64
2018-05-15T07:43:40.549Z,11.61
2018-05-15T07:44:40.616Z,11.59
2018-05-15T07:45:40.640Z,11.57
2018-05-15T07:46:40.689Z,11.59
2018-05-15T07:47:40.740Z,11.65
2018-05-15T07:48:40.783Z,11.61
2018-05-15T07:49:40.861Z,11.62
2018-05-15T07:50:40.880Z,11.61
2018-05-15T07:51:40.924Z,11.62
2018-05-15T07:52:40.974Z,11.57
2018-05-15T07:53:41.092Z,11.59
2018-05-15T07:54:41.090Z,11.61
2018-05-15T07:55:41.112Z,11.59
2018-05-15T07:56:41.184Z,11.52
2018-05-15T07:57:41.210Z,11.65
2018-05-15T07:58:41.258Z,11.57
2018-05-15T07:59:41.303Z,11.59
2018-05-15T08:00:41.349Z,11.62
2018-05-15T08:01:41.421Z,11.53
2018-05-15T08:02:41.444Z,11.56
2018-05-15T08:03:41.492Z,11.59
2018-05-15T08:04:41.538Z,11.74
2018-05-15T08:05:41.611Z,11.71
2018-05-15T08:06:41.631Z,11.74
2018-05-15T08:07:41.679Z,11.75
2018-05-15T08:08:41.729Z,11.77
2018-05-15T08:09:41.774Z,11.78
2018-05-15T08:10:41.846Z,11.89
2018-05-15T08:11:41.871Z,11.94
2018-05-15T08:12:41.916Z,11.86
2018-05-15T08:13:41.963Z,11.77
2018-05-15T08:14:42.013Z,11.61
2018-05-15T08:15:42.080Z,11.57
2018-05-15T08:16:42.104Z,11.68
2018-05-15T08:17:42.153Z,11.77
2018-05-15T08:18:42.199Z,11.78
2018-05-15T08:19:42.256Z,11.83
2018-05-15T08:20:42.330Z,11.90
2018-05-15T08:21:42.342Z,11.86
2018-05-15T08:22:42.388Z,11.94
2018-05-15T08:23:42.438Z,11.90
2018-05-15T08:24:42.487Z,11.80
2018-05-15T08:25:42.559Z,11.77
2018-05-15T08:26:42.582Z,11.85
2018-05-15T08:27:42.625Z,11.94
2018-05-15T08:28:42.704Z,11.99
2018-05-15T08:29:42.726Z,12.06
2018-05-15T08:30:42.817Z,12.06
2018-05-15T08:31:42.840Z,12.08
2018-05-15T08:32:42.866Z,12.09
2018-05-15T08:33:42.911Z,12.16
2018-05-15T08:34:43.050Z,11.99
2018-05-15T08:35:43.004Z,11.99
2018-05-15T08:36:43.052Z,12.06
2018-05-15T08:37:43.168Z,11.90
2018-05-15T08:38:43.150Z,11.96
2018-05-15T08:39:43.222Z,11.94
2018-05-15T08:40:43.245Z,11.89
2018-05-15T08:41:43.292Z,11.74
2018-05-15T08:42:43.371Z,11.87
2018-05-15T08:43:43.386Z,11.96
2018-05-15T08:44:43.433Z,12.02
2018-05-15T08:45:43.503Z,11.94
2018-05-15T08:46:43.529Z,12.06
2018-05-15T08:47:43.580Z,12.01
2018-05-15T08:48:43.621Z,12.01
2018-05-15T08:49:43.668Z,12.08
2018-05-15T08:50:43.739Z,12.08
2018-05-15T08:51:43.763Z,12.09
2018-05-15T08:52:43.816Z,12.08
2018-05-15T08:53:43.859Z,12.06
2018-05-15T08:54:43.954Z,12.09
2018-05-15T08:55:43.977Z,12.05
2018-05-15T08:56:44.003Z,12.06
2018-05-15T08:57:44.050Z,12.12
2018-05-15T08:58:44.123Z,12.12
2018-05-15T08:59:44.145Z,12.20
2018-05-15T09:00:44.193Z,12.09
2018-05-15T09:01:44.261Z,12.06
2018-05-15T09:02:44.285Z,12.11
2018-05-15T09:03:44.333Z,12.12
2018-05-15T09:04:44.383Z,12.15
2018-05-15T09:05:44.454Z,12.16
2018-05-15T09:06:44.475Z,12.15
2018-05-15T09:07:44.549Z,12.11
2018-05-15T09:08:44.574Z,12.08
2018-05-15T09:09:44.618Z,12.08
2018-05-15T09:10:44.669Z,12.08
2018-05-15T09:11:44.715Z,12.05
2018-05-15T09:12:44.788Z,12.08
2018-05-15T09:13:44.816Z,12.08
2018-05-15T09:14:44.856Z,12.08
2018-05-15T09:15:44.926Z,12.12
2018-05-15T09:16:44.955Z,12.12
2018-05-15T09:17:45.025Z,12.20
2018-05-15T09:18:45.043Z,12.20
2018-05-15T09:19:45.094Z,12.24
2018-05-15T09:20:45.141Z,12.38
2018-05-15T09:21:45.190Z,12.33
2018-05-15T09:22:45.259Z,12.44
2018-05-15T09:23:45.282Z,12.34
2018-05-15T09:24:45.331Z,12.33
2018-05-15T09:25:45.381Z,12.31
2018-05-15T09:26:45.424Z,12.41
2018-05-15T09:27:45.506Z,12.20
2018-05-15T09:28:45.519Z,12.38
2018-05-15T09:29:45.569Z,12.48
2018-05-15T09:30:45.621Z,12.42
2018-05-15T09:31:45.666Z,12.45
2018-05-15T09:32:45.744Z,12.54
2018-05-15T09:33:45.769Z,12.51
2018-05-15T09:34:45.805Z,12.38
2018-05-15T09:35:45.853Z,12.52
2018-05-15T09:36:45.904Z,12.71
2018-05-15T09:37:45.990Z,13.00
2018-05-15T09:38:46.001Z,13.21
2018-05-15T09:39:46.043Z,13.58
2018-05-15T09:40:46.091Z,13.79
2018-05-15T09:41:46.140Z,14.24
2018-05-15T09:42:46.217Z,14.53
2018-05-15T09:43:46.264Z,14.78
2018-05-15T09:44:46.284Z,14.86
2018-05-15T09:45:46.341Z,14.80
2018-05-15T09:46:46.388Z,14.86
2018-05-15T09:47:46.429Z,14.71
2018-05-15T09:48:46.513Z,14.69
2018-05-15T09:49:46.529Z,14.54
2018-05-15T09:50:46.578Z,14.31
2018-05-15T09:51:46.626Z,13.94
2018-05-15T09:52:46.675Z,13.73
2018-05-15T09:53:46.763Z,13.67
2018-05-15T09:54:46.770Z,13.70
2018-05-15T09:55:46.820Z,13.55
2018-05-15T09:56:46.872Z,13.41
2018-05-15T09:57:46.917Z,13.46
2018-05-15T09:58:47.521Z,13.49
2018-05-15T09:59:47.018Z,13.52
2018-05-15T10:00:47.070Z,13.65
2018-05-15T10:01:47.116Z,13.73
2018-05-15T10:02:47.167Z,13.69
2018-05-15T10:03:47.239Z,13.71
2018-05-15T10:04:47.262Z,13.71
2018-05-15T10:05:47.309Z,13.52
2018-05-15T10:06:47.360Z,13.58
2018-05-15T10:07:47.502Z,13.83
2018-05-15T10:08:47.478Z,13.99
2018-05-15T10:09:47.505Z,13.98
2018-05-15T10:10:47.559Z,13.73
2018-05-15T10:11:47.632Z,13.69
2018-05-15T10:12:47.654Z,13.59
2018-05-15T10:13:47.699Z,13.51
2018-05-15T10:14:47.748Z,13.44
2018-05-15T10:15:47.796Z,13.44
2018-05-15T10:16:47.869Z,13.44
2018-05-15T10:17:47.910Z,13.52
2018-05-15T10:18:47.942Z,13.56
2018-05-15T10:19:47.995Z,13.81
2018-05-15T10:20:48.042Z,13.74
2018-05-15T10:21:48.114Z,13.61
2018-05-15T10:22:48.137Z,13.47
2018-05-15T10:23:48.194Z,13.47
2018-05-15T10:24:48.240Z,13.51
2018-05-15T10:25:48.309Z,13.44
2018-05-15T10:26:48.357Z,13.36
2018-05-15T10:27:48.386Z,13.29
2018-05-15T10:28:48.432Z,13.21
2018-05-15T10:29:48.516Z,13.18
2018-05-15T10:30:48.528Z,13.33
2018-05-15T10:31:48.615Z,13.47
2018-05-15T10:32:48.625Z,13.54
2018-05-15T10:33:48.675Z,13.94
2018-05-15T10:34:48.723Z,14.21
2018-05-15T10:35:48.771Z,14.39
2018-05-15T10:36:48.863Z,14.69
2018-05-15T10:37:48.866Z,15.03
2018-05-15T10:38:48.914Z,15.24
2018-05-15T10:39:48.964Z,15.39
2018-05-15T10:40:49.013Z,15.59
2018-05-15T10:41:49.105Z,16.00
2018-05-15T10:42:49.112Z,16.16
2018-05-15T10:43:49.239Z,16.60
2018-05-15T10:44:49.211Z,16.88
2018-05-15T10:45:49.261Z,16.92
2018-05-15T10:46:49.332Z,16.90
2018-05-15T10:47:49.357Z,16.67
2018-05-15T10:48:49.438Z,16.63
2018-05-15T10:49:49.462Z,16.75
2018-05-15T10:50:49.514Z,17.18
2018-05-15T10:51:49.559Z,17.23
2018-05-15T10:52:49.643Z,17.26
2018-05-15T10:53:49.664Z,17.22
2018-05-15T10:54:49.707Z,17.36
2018-05-15T10:55:49.765Z,17.35
2018-05-15T10:56:49.809Z,17.30
2018-05-15T10:57:49.885Z,17.23
2018-05-15T10:58:49.916Z,16.96
2018-05-15T10:59:49.962Z,16.89
2018-05-15T11:00:50.011Z,16.70
2018-05-15T11:01:50.067Z,16.56
2018-05-15T11:02:50.139Z,16.58
2018-05-15T11:03:50.191Z,16.65
2018-05-15T11:04:50.213Z,16.68
2018-05-15T11:05:50.265Z,16.52
2018-05-15T11:06:50.315Z,16.38
2018-05-15T11:07:50.368Z,16.31
2018-05-15T11:08:50.448Z,16.27
2018-05-15T11:09:50.467Z,16.40
2018-05-15T11:10:50.518Z,16.44
2018-05-15T11:11:50.570Z,16.56
2018-05-15T11:12:50.681Z,16.53
2018-05-15T11:13:50.702Z,16.48
2018-05-15T11:14:50.748Z,16.48
2018-05-15T11:15:50.774Z,16.67
2018-05-15T11:16:50.823Z,16.88
2018-05-15T11:17:50.876Z,17.11
2018-05-15T11:18:50.925Z,17.23
2018-05-15T11:19:50.998Z,17.70
2018-05-15T11:20:51.029Z,18.25
2018-05-15T11:21:51.079Z,18.76
2018-05-15T11:22:51.130Z,19.05
2018-05-15T11:23:51.181Z,18.95
2018-05-15T11:24:51.268Z,19.02
2018-05-15T11:25:51.282Z,18.98
2018-05-15T11:26:51.332Z,18.82
2018-05-15T11:27:51.383Z,18.40
2018-05-15T11:28:51.468Z,18.00
2018-05-15T11:29:51.515Z,17.26
2018-05-15T11:30:51.562Z,16.99
2018-05-15T11:31:51.595Z,16.83
2018-05-15T11:32:51.645Z,17.14
2018-05-15T11:33:51.694Z,16.96
2018-05-15T11:34:51.748Z,16.88
2018-05-15T11:35:51.899Z,17.11
2018-05-15T11:36:51.849Z,17.25
2018-05-15T11:37:51.912Z,17.23
2018-05-15T11:38:51.953Z,16.89
2018-05-15T11:39:52.009Z,16.38
2018-05-15T11:40:52.081Z,16.26
2018-05-15T11:41:52.129Z,16.30
2018-05-15T11:42:52.158Z,16.60
2018-05-15T11:43:52.224Z,16.65
2018-05-15T11:44:52.263Z,16.50
2018-05-15T11:45:52.352Z,16.53
2018-05-15T11:46:52.368Z,16.60
2018-05-15T11:47:52.879Z,16.77
2018-05-15T11:48:52.874Z,16.75
2018-05-15T11:49:53.494Z,16.96
2018-05-15T11:50:53.383Z,17.08
2018-05-15T11:51:53.514Z,17.03
2018-05-15T11:52:53.311Z,17.25
2018-05-15T11:53:52.786Z,17.74
2018-05-15T11:54:52.773Z,18.21
2018-05-15T11:55:52.877Z,18.12
2018-05-15T11:56:52.877Z,17.59
2018-05-15T11:57:52.988Z,17.64
2018-05-15T11:58:52.975Z,17.88
2018-05-15T11:59:53.075Z,17.87
2018-05-15T12:00:53.124Z,17.71
2018-05-15T12:01:53.132Z,17.99
2018-05-15T12:02:53.190Z,18.19
2018-05-15T12:03:53.394Z,18.68
2018-05-15T12:04:53.289Z,18.76
2018-05-15T12:05:53.363Z,18.90
2018-05-15T12:06:53.428Z,19.08
2018-05-15T12:07:53.444Z,19.08
2018-05-15T12:08:53.497Z,18.95
2018-05-15T12:09:53.549Z,19.24
2018-05-15T12:10:53.603Z,19.33
2018-05-15T12:11:53.680Z,19.35
2018-05-15T12:12:53.749Z,19.08
2018-05-15T12:13:53.760Z,19.11
2018-05-15T12:14:53.814Z,18.91
2018-05-15T12:15:53.864Z,18.87
2018-05-15T12:16:53.954Z,18.55
2018-05-15T12:17:53.970Z,18.18
2018-05-15T12:18:54.024Z,17.84
2018-05-15T12:19:54.076Z,17.59
2018-05-15T12:20:54.128Z,17.50
2018-05-15T12:21:54.204Z,17.35
2018-05-15T12:22:54.262Z,17.25
2018-05-15T12:23:54.285Z,17.23
2018-05-15T12:24:54.345Z,17.15
2018-05-15T12:25:54.390Z,16.89
2018-05-15T12:26:54.447Z,17.04
2018-05-15T12:27:54.531Z,17.17
2018-05-15T12:28:54.550Z,17.18
2018-05-15T12:29:54.681Z,17.43
2018-05-15T12:30:54.659Z,17.36
2018-05-15T12:31:54.703Z,17.43
2018-05-15T12:32:54.788Z,17.33
2018-05-15T12:33:54.816Z,17.38
2018-05-15T12:34:54.858Z,17.35
2018-05-15T12:35:54.971Z,17.25
2018-05-15T12:36:54.955Z,17.18
2018-05-15T12:37:55.032Z,17.25
2018-05-15T12:38:55.081Z,17.28
2018-05-15T12:39:55.116Z,17.22
2018-05-15T12:40:55.165Z,17.15
2018-05-15T12:41:55.249Z,17.11
2018-05-15T12:42:55.268Z,16.90
2018-05-15T12:43:55.357Z,16.92
2018-05-15T12:44:55.365Z,16.77
2018-05-15T12:45:55.415Z,16.85
2018-05-15T12:46:55.467Z,16.74
2018-05-15T12:47:55.591Z,16.65
2018-05-15T12:48:55.610Z,16.68
2018-05-15T12:49:55.657Z,16.41
2018-05-15T12:50:55.670Z,16.31
2018-05-15T12:51:55.722Z,16.34
2018-05-15T12:52:55.770Z,16.20